createdAt,value
2023-02-16T05:49:36.377Z,3.10
2023-02-16T13:13:21.683Z,3.70
2023-02-16T13:15:51.395Z,3.50
2023-02-16T13:18:21.104Z,3.70
2023-02-16T13:21:00.694Z,3.80
2023-02-16T13:23:36.772Z,3.50
2023-02-16T13:26:38.057Z,3.70
2023-02-16T13:29:32.584Z,3.70
2023-02-16T13:32:28.542Z,3.80
2023-02-16T13:35:17.358Z,3.70
2023-02-16T13:38:02.813Z,3.70
2023-02-16T13:40:36.017Z,3.60
2023-02-16T13:43:06.497Z,3.50
2023-02-16T13:45:39.194Z,3.60
2023-02-16T13:48:28.710Z,3.60
2023-02-16T13:51:03.939Z,3.50
2023-02-16T13:53:38.023Z,3.50
2023-02-16T13:56:33.010Z,3.50
2023-02-16T13:59:18.682Z,3.70
2023-02-16T14:01:56.983Z,3.60
2023-02-16T14:04:23.869Z,3.60
2023-02-16T14:07:03.342Z,3.40
2023-02-16T14:09:47.632Z,3.60
2023-02-16T14:12:36.161Z,3.50
2023-02-16T14:15:07.648Z,3.50
2023-02-16T14:17:35.703Z,3.40
2023-02-16T14:20:15.153Z,3.40
2023-02-16T14:22:50.911Z,3.30
2023-02-16T14:25:23.482Z,3.20
2023-02-16T14:27:58.927Z,3.30
2023-02-16T14:30:25.887Z,3.40
2023-02-16T14:33:16.427Z,3.20
2023-02-16T14:35:59.633Z,3.10
2023-02-16T14:38:37.927Z,3.10
2023-02-16T14:41:08.937Z,3.30
2023-02-16T14:43:42.611Z,3.40
2023-02-16T14:46:43.655Z,3.10
2023-02-16T14:49:38.646Z,3.20
2023-02-16T14:52:37.196Z,3.10
2023-02-16T14:55:39.614Z,2.90
2023-02-16T14:58:51.182Z,2.90
2023-02-16T15:01:19.261Z,3.00
2023-02-16T15:03:50.422Z,3.30
2023-02-16T15:06:32.530Z,3.00
2023-02-16T15:09:06.673Z,3.10
2023-02-16T15:11:56.702Z,3.20
2023-02-16T15:14:26.854Z,3.00
2023-02-16T15:16:55.556Z,3.20
2023-02-16T15:19:28.851Z,3.20
2023-02-16T15:22:22.330Z,3.10
2023-02-16T15:25:02.307Z,3.20
2023-02-16T15:27:33.125Z,3.20
2023-02-16T15:30:10.803Z,3.20
2023-02-16T15:32:38.500Z,3.10
2023-02-16T15:35:24.765Z,3.00
2023-02-16T15:38:09.404Z,3.20
2023-02-16T15:40:38.508Z,3.10
2023-02-16T15:43:30.968Z,3.10
2023-02-16T15:45:59.133Z,3.00
2023-02-16T15:48:31.835Z,3.00
2023-02-16T15:51:20.612Z,3.20
2023-02-16T15:54:05.631Z,3.10
2023-02-16T15:56:39.970Z,3.30
2023-02-16T15:59:37.464Z,3.00
2023-02-16T16:02:11.715Z,3.00
2023-02-16T16:05:03.279Z,3.10
2023-02-16T16:07:35.800Z,3.20
2023-02-16T16:10:13.742Z,3.20
2023-02-16T16:12:41.283Z,3.10
2023-02-16T16:15:16.228Z,2.90
2023-02-16T16:17:43.447Z,3.00
2023-02-16T16:20:31.190Z,3.10
2023-02-16T16:23:21.480Z,3.10
2023-02-16T16:25:49.006Z,2.90
2023-02-16T16:28:28.046Z,3.00
2023-02-16T16:31:13.882Z,3.00
2023-02-16T16:34:03.475Z,3.20
2023-02-16T16:36:33.191Z,3.10
2023-02-16T16:39:18.921Z,2.90
2023-02-16T16:42:08.102Z,2.90
2023-02-16T16:44:37.878Z,3.00
2023-02-16T16:47:25.279Z,3.10
2023-02-16T16:50:15.163Z,3.20
2023-02-16T16:52:48.629Z,3.20
2023-02-16T16:55:23.499Z,3.10
2023-02-16T16:57:59.123Z,3.20
2023-02-16T17:00:30.904Z,3.20
2023-02-16T17:02:58.651Z,3.20
2023-02-16T17:05:25.597Z,3.20
2023-02-16T17:07:52.743Z,3.20
2023-02-16T17:10:21.498Z,3.30
2023-02-16T17:12:52.918Z,3.30
2023-02-16T17:15:41.045Z,3.20
2023-02-16T17:18:19.922Z,3.20
2023-02-16T17:20:47.525Z,3.10
2023-02-16T17:23:16.302Z,3.20
2023-02-16T17:25:43.941Z,3.20
2023-02-16T17:28:12.702Z,3.20
2023-02-16T17:30:39.761Z,3.20
2023-02-16T17:33:09.831Z,3.30
2023-02-16T17:35:42.058Z,3.20
2023-02-16T17:38:17.323Z,3.00
2023-02-16T17:40:48.054Z,3.40
2023-02-16T17:43:16.138Z,3.50
2023-02-16T17:45:43.883Z,3.20
2023-02-16T17:48:23.481Z,3.30
2023-02-16T17:50:51.389Z,3.10
2023-02-16T17:53:24.415Z,3.20
2023-02-16T17:55:55.307Z,3.20
2023-02-16T17:58:25.305Z,3.30
2023-02-16T18:00:52.679Z,3.40
2023-02-16T18:03:19.684Z,3.30
2023-02-16T18:05:46.790Z,3.20
2023-02-16T18:08:14.406Z,3.40
2023-02-16T18:10:51.934Z,3.20
2023-02-16T18:13:19.060Z,3.30
2023-02-16T18:15:48.325Z,3.20
2023-02-16T18:18:17.188Z,3.30
2023-02-16T18:20:44.524Z,3.20
2023-02-16T18:23:16.814Z,3.30
2023-02-16T18:25:44.280Z,3.30
2023-02-16T18:28:18.488Z,3.20
2023-02-16T18:30:48.049Z,3.30
2023-02-16T18:33:17.154Z,3.40
2023-02-16T18:35:44.362Z,3.20
2023-02-16T18:38:11.313Z,3.30
2023-02-16T18:40:38.946Z,3.30
2023-02-16T18:43:05.981Z,3.30
2023-02-16T18:45:33.046Z,3.30
2023-02-16T18:47:59.992Z,3.10
2023-02-16T18:50:26.932Z,3.30
2023-02-16T18:52:53.828Z,3.20
2023-02-16T18:55:20.803Z,3.20
2023-02-16T18:57:47.714Z,3.10
2023-02-16T19:00:15.791Z,3.40
2023-02-16T19:02:43.440Z,3.30
2023-02-16T19:05:11.283Z,3.20
2023-02-16T19:07:38.509Z,3.30
2023-02-16T19:10:08.418Z,3.40
2023-02-16T19:12:35.347Z,3.30
2023-02-16T19:15:02.280Z,3.20
2023-02-16T19:17:29.271Z,3.30
2023-02-16T19:19:56.183Z,3.50
2023-02-16T19:22:23.167Z,3.30
2023-02-16T19:24:50.434Z,3.10
2023-02-16T19:27:18.141Z,3.20
2023-02-16T19:29:47.438Z,3.20
2023-02-16T19:32:14.439Z,3.30
2023-02-16T19:34:41.368Z,3.30
2023-02-16T19:37:08.314Z,3.40
2023-02-16T19:39:35.716Z,3.40
2023-02-16T19:42:02.700Z,3.40
2023-02-16T19:44:29.743Z,3.20
2023-02-16T19:46:56.790Z,3.50
2023-02-16T19:49:23.705Z,3.50
2023-02-16T19:51:50.714Z,3.40
2023-02-16T19:54:17.665Z,3.40
2023-02-16T19:56:44.616Z,3.40
2023-02-16T19:59:11.627Z,3.40
2023-02-16T20:01:38.670Z,3.40
2023-02-16T20:04:05.674Z,3.30
2023-02-16T20:06:39.182Z,3.50
2023-02-16T20:09:06.249Z,3.30
2023-02-16T20:11:33.653Z,3.30
2023-02-16T20:14:01.543Z,3.40
2023-02-16T20:16:29.335Z,3.30
2023-02-16T20:18:57.974Z,3.20
2023-02-16T20:21:28.398Z,3.20
2023-02-16T20:23:58.163Z,3.50
2023-02-16T20:26:28.260Z,3.40
2023-02-16T20:28:56.190Z,3.20
2023-02-16T20:31:28.440Z,3.30
2023-02-16T20:33:56.582Z,3.40
2023-02-16T20:36:23.966Z,3.40
2023-02-16T20:38:50.914Z,3.30
2023-02-16T20:41:19.029Z,3.40
2023-02-16T20:43:46.278Z,3.40
2023-02-16T20:46:14.883Z,3.20
2023-02-16T20:48:41.941Z,3.20
2023-02-16T20:51:11.147Z,3.30
2023-02-16T20:53:38.227Z,3.10
2023-02-16T20:56:11.731Z,3.40
2023-02-16T20:58:38.974Z,3.30
2023-02-16T21:01:16.852Z,3.30
2023-02-16T21:03:43.904Z,3.40
2023-02-16T21:06:11.139Z,3.10
2023-02-16T21:08:38.234Z,3.30
2023-02-16T21:11:05.564Z,2.90
2023-02-16T21:13:33.048Z,3.00
2023-02-16T21:16:00.343Z,3.10
2023-02-16T21:18:27.450Z,3.30
2023-02-16T21:20:54.504Z,3.10
2023-02-16T21:23:21.798Z,3.10
2023-02-16T21:25:48.793Z,3.10
2023-02-16T21:28:15.847Z,3.40
2023-02-16T21:30:43.193Z,3.10
2023-02-16T21:33:10.261Z,3.20
2023-02-16T21:35:37.302Z,3.30
2023-02-16T21:38:04.807Z,3.10
2023-02-16T21:40:50.260Z,3.20
2023-02-16T21:43:17.415Z,3.20
2023-02-16T21:45:44.412Z,3.10
2023-02-16T21:48:30.871Z,3.00
2023-02-16T21:51:02.134Z,3.10
2023-02-16T21:53:30.668Z,3.40
2023-02-16T21:56:16.342Z,3.30
2023-02-16T21:58:44.171Z,3.40
2023-02-16T22:01:11.316Z,3.30
2023-02-16T22:03:38.497Z,3.10
2023-02-16T22:06:07.480Z,3.20
2023-02-16T22:08:38.086Z,3.20
2023-02-16T22:11:07.614Z,3.20
2023-02-16T22:13:36.268Z,3.20
2023-02-16T22:16:18.502Z,3.30
2023-02-16T22:18:45.552Z,3.30
2023-02-16T22:21:14.287Z,3.40
2023-02-16T22:23:41.591Z,3.30
2023-02-16T22:26:08.930Z,3.40
2023-02-16T22:28:37.065Z,3.20
2023-02-16T22:31:08.795Z,3.30
2023-02-16T22:33:35.821Z,3.30
2023-02-16T22:36:07.855Z,3.40
2023-02-16T22:38:34.969Z,3.30
2023-02-16T22:41:06.171Z,3.00
2023-02-16T22:43:33.356Z,3.50
2023-02-16T22:46:04.288Z,3.30
2023-02-16T22:48:31.603Z,3.30
2023-02-16T22:50:59.844Z,3.40
2023-02-16T22:53:30.063Z,3.30
2023-02-16T22:55:57.033Z,3.30
2023-02-16T22:58:24.081Z,3.30
2023-02-16T23:00:51.221Z,3.20
2023-02-16T23:03:19.030Z,3.20
2023-02-16T23:05:46.999Z,3.20
2023-02-16T23:08:14.388Z,3.40
2023-02-16T23:10:59.809Z,3.40
2023-02-16T23:13:32.132Z,3.30
2023-02-16T23:16:08.432Z,3.40
2023-02-16T23:18:35.971Z,3.20
2023-02-16T23:21:14.106Z,3.20
2023-02-16T23:23:41.556Z,3.40
2023-02-16T23:26:09.213Z,3.20
2023-02-16T23:28:37.834Z,3.10
2023-02-16T23:31:05.165Z,3.40
2023-02-16T23:33:32.300Z,3.30
2023-02-16T23:35:59.334Z,3.10
2023-02-16T23:38:26.484Z,3.30
2023-02-16T23:41:01.870Z,3.30
2023-02-16T23:43:29.385Z,3.20
2023-02-16T23:45:56.375Z,3.20
2023-02-16T23:48:23.803Z,3.20
2023-02-16T23:50:51.874Z,3.40
2023-02-16T23:53:20.042Z,3.10
2023-02-16T23:56:08.141Z,3.30
2023-02-16T23:58:38.069Z,3.40
